createdAt,value
2024-03-13T00:00:17.845Z,98.33
2024-03-13T00:00:49.816Z,95.00
2024-03-13T00:01:22.469Z,95.00
2024-03-13T00:01:54.668Z,94.33
2024-03-13T00:02:26.527Z,93.67
2024-03-13T00:02:59.813Z,93.00
2024-03-13T00:03:33.372Z,92.67
2024-03-13T00:04:06.482Z,92.00
2024-03-13T00:04:47.364Z,92.67
2024-03-13T00:05:22.395Z,95.67
2024-03-13T00:05:57.016Z,97.00
2024-03-13T00:06:29.333Z,96.67
2024-03-13T00:07:02.276Z,95.00
2024-03-13T00:07:34.127Z,93.00
2024-03-13T00:08:08.330Z,93.33
2024-03-13T00:08:41.049Z,93.67
2024-03-13T00:09:13.642Z,92.67
2024-03-13T00:09:47.034Z,93.00
2024-03-13T00:10:19.369Z,93.00
2024-03-13T00:10:51.781Z,92.67
2024-03-13T00:11:27.035Z,90.00
2024-03-13T00:11:58.893Z,88.00
2024-03-13T00:12:31.684Z,85.67
2024-03-13T00:13:03.565Z,85.00
2024-03-13T00:13:35.553Z,85.00
2024-03-13T00:14:07.679Z,84.33
2024-03-13T00:14:39.523Z,83.00
2024-03-13T00:15:12.360Z,82.00
2024-03-13T00:15:45.633Z,78.00
2024-03-13T00:16:17.569Z,75.33
2024-03-13T00:16:49.432Z,76.67
2024-03-13T00:17:21.601Z,77.33
2024-03-13T00:17:53.504Z,78.33
2024-03-13T00:18:25.450Z,79.00
2024-03-13T00:18:57.330Z,79.67
2024-03-13T00:19:29.219Z,81.33
2024-03-13T00:20:01.197Z,83.33
2024-03-13T00:20:33.090Z,87.00
2024-03-13T00:21:05.616Z,88.00
2024-03-13T00:21:40.150Z,88.00
2024-03-13T00:22:13.992Z,87.00
2024-03-13T00:22:46.718Z,87.00
2024-03-13T00:23:19.580Z,87.67
2024-03-13T00:23:53.789Z,87.00
2024-03-13T00:24:25.670Z,86.67
2024-03-13T00:24:58.297Z,87.00
2024-03-13T00:25:30.493Z,86.00
2024-03-13T00:26:02.340Z,87.00
2024-03-13T00:26:34.951Z,87.00
2024-03-13T00:27:07.010Z,87.00
2024-03-13T00:27:40.646Z,87.00
2024-03-13T00:28:12.720Z,86.67
2024-03-13T00:28:44.565Z,84.00
2024-03-13T00:29:16.367Z,83.00
2024-03-13T00:29:49.507Z,83.00
2024-03-13T00:30:22.119Z,82.00
2024-03-13T00:30:54.011Z,82.00
2024-03-13T00:31:25.929Z,82.00
2024-03-13T00:31:57.791Z,82.00
2024-03-13T00:32:29.664Z,82.00
2024-03-13T00:33:01.607Z,82.00
2024-03-13T00:33:33.460Z,85.33
2024-03-13T00:34:07.613Z,88.67
2024-03-13T00:34:39.872Z,97.00
2024-03-13T00:35:14.574Z,100.33
2024-03-13T00:35:46.413Z,99.00
2024-03-13T00:36:20.444Z,97.33
2024-03-13T00:36:52.329Z,96.67
2024-03-13T00:37:24.454Z,95.33
2024-03-13T00:37:56.453Z,93.00
2024-03-13T00:38:28.249Z,89.33
2024-03-13T00:39:00.119Z,89.00
2024-03-13T00:39:32.249Z,88.67
2024-03-13T00:40:07.636Z,86.67
2024-03-13T00:40:40.362Z,86.33
2024-03-13T00:41:12.222Z,86.00
2024-03-13T00:41:44.765Z,86.00
2024-03-13T00:42:17.455Z,87.00
2024-03-13T00:42:49.284Z,89.00
2024-03-13T00:43:22.067Z,89.67
2024-03-13T00:43:54.587Z,89.00
2024-03-13T00:44:26.522Z,88.33
2024-03-13T00:44:58.992Z,87.00
2024-03-13T00:45:30.827Z,85.00
2024-03-13T00:46:02.745Z,85.67
2024-03-13T00:46:35.098Z,99.00
2024-03-13T00:47:07.955Z,99.33
2024-03-13T00:47:40.072Z,97.33
2024-03-13T00:48:12.401Z,102.33
2024-03-13T00:48:44.350Z,108.33
2024-03-13T00:49:16.638Z,105.67
2024-03-13T00:49:48.481Z,103.00
2024-03-13T00:50:20.340Z,100.33
2024-03-13T00:50:52.144Z,94.33
2024-03-13T00:51:24.461Z,82.00
2024-03-13T00:51:56.318Z,77.33
2024-03-13T00:52:29.984Z,76.00
2024-03-13T00:53:02.301Z,76.33
2024-03-13T00:53:34.111Z,75.00
2024-03-13T00:54:06.057Z,70.33
2024-03-13T00:54:38.153Z,70.00
2024-03-13T00:55:12.023Z,71.33
2024-03-13T00:55:44.180Z,72.00
2024-03-13T00:56:17.053Z,72.33
2024-03-13T00:56:49.529Z,73.33
2024-03-13T00:57:21.497Z,74.00
2024-03-13T00:57:53.334Z,75.67
2024-03-13T00:58:25.283Z,76.67
2024-03-13T00:58:57.406Z,76.00
2024-03-13T00:59:30.826Z,76.00
2024-03-13T01:00:05.425Z,76.00
2024-03-13T01:00:38.272Z,76.33
2024-03-13T01:01:12.408Z,77.00
2024-03-13T01:01:49.631Z,77.33
2024-03-13T01:02:24.267Z,78.00
2024-03-13T01:02:56.220Z,77.67
2024-03-13T01:03:29.452Z,77.00
2024-03-13T01:04:01.339Z,75.67
2024-03-13T01:04:34.339Z,72.00
2024-03-13T01:05:06.299Z,70.33
2024-03-13T01:05:38.188Z,71.00
2024-03-13T01:06:09.992Z,71.00
2024-03-13T01:06:42.246Z,70.33
2024-03-13T01:07:14.130Z,68.67
2024-03-13T01:07:50.111Z,68.33
2024-03-13T01:08:22.244Z,69.00
2024-03-13T01:08:54.071Z,69.33
2024-03-13T01:09:25.940Z,70.33
2024-03-13T01:09:57.808Z,71.00
2024-03-13T01:10:29.669Z,70.33
2024-03-13T01:11:02.067Z,69.67
2024-03-13T01:11:35.283Z,69.33
2024-03-13T01:12:08.140Z,69.33
2024-03-13T01:12:40.888Z,71.00
2024-03-13T01:13:12.805Z,74.33
2024-03-13T01:13:44.697Z,75.00
2024-03-13T01:14:21.113Z,75.00
2024-03-13T01:14:52.979Z,75.00
2024-03-13T01:15:25.181Z,75.00
2024-03-13T01:15:57.119Z,75.00
2024-03-13T01:16:29.031Z,74.33
2024-03-13T01:17:02.687Z,74.67
2024-03-13T01:17:35.848Z,74.33
2024-03-13T01:18:10.730Z,74.00
2024-03-13T01:18:42.884Z,74.00
2024-03-13T01:19:14.808Z,74.00
2024-03-13T01:19:46.725Z,74.33
2024-03-13T01:20:20.177Z,77.00
2024-03-13T01:20:51.988Z,76.33
2024-03-13T01:21:23.787Z,77.00
2024-03-13T01:22:06.763Z,81.67
2024-03-13T01:22:41.106Z,84.33
2024-03-13T01:23:12.912Z,82.67
2024-03-13T01:23:44.818Z,81.00
2024-03-13T01:24:18.212Z,80.00
2024-03-13T01:24:50.065Z,79.00
2024-03-13T01:25:21.939Z,79.33
2024-03-13T01:25:55.723Z,80.00
2024-03-13T01:26:27.692Z,80.00
2024-03-13T01:27:00.115Z,81.00
2024-03-13T01:27:31.964Z,82.00
2024-03-13T01:28:04.087Z,81.67
2024-03-13T01:28:39.468Z,81.33
2024-03-13T01:29:11.313Z,98.67
2024-03-13T01:29:47.546Z,106.00
2024-03-13T01:30:19.658Z,102.67
2024-03-13T01:30:51.502Z,96.67
2024-03-13T01:31:24.949Z,92.67
2024-03-13T01:31:59.928Z,85.67
2024-03-13T01:32:31.959Z,85.00
2024-03-13T01:33:04.092Z,83.67
2024-03-13T01:33:42.178Z,82.67
2024-03-13T01:34:14.050Z,89.67
2024-03-13T01:34:47.867Z,96.33
2024-03-13T01:35:20.589Z,100.67
2024-03-13T01:35:52.955Z,97.00
2024-03-13T01:36:44.869Z,96.00
2024-03-13T01:37:35.280Z,96.33
2024-03-13T01:38:07.142Z,95.33
2024-03-13T01:38:39.071Z,99.00
2024-03-13T01:39:11.091Z,105.67
2024-03-13T01:39:43.027Z,103.67
2024-03-13T01:40:20.488Z,101.33
2024-03-13T01:41:11.062Z,100.00
2024-03-13T01:42:03.581Z,84.67
2024-03-13T01:42:54.066Z,98.67
2024-03-13T01:43:44.675Z,103.33
2024-03-13T01:44:34.834Z,104.00
2024-03-13T01:45:49.472Z,97.33
2024-03-13T01:46:40.643Z,94.33
2024-03-13T01:47:35.582Z,93.00
2024-03-13T01:48:43.457Z,85.33
2024-03-13T01:49:39.008Z,66.33
2024-03-13T01:50:37.057Z,63.00
2024-03-13T01:51:27.418Z,70.33
2024-03-13T01:52:24.106Z,67.67
2024-03-13T01:53:18.719Z,65.00
2024-03-13T01:54:09.184Z,68.00
2024-03-13T01:54:52.206Z,64.00
2024-03-13T01:55:29.839Z,59.33
2024-03-13T01:56:22.238Z,60.67
2024-03-13T01:57:01.893Z,63.00
2024-03-13T01:57:56.975Z,64.33
2024-03-13T01:58:41.217Z,70.00
2024-03-13T01:59:24.855Z,70.00
2024-03-13T02:00:16.381Z,70.67
2024-03-13T02:01:06.984Z,71.00
2024-03-13T02:01:57.453Z,72.00
2024-03-13T02:02:29.626Z,72.00
2024-03-13T02:03:01.896Z,72.00
2024-03-13T02:03:33.790Z,72.33
2024-03-13T02:04:06.131Z,72.00
2024-03-13T02:04:38.017Z,71.67
2024-03-13T02:05:10.398Z,72.00
2024-03-13T02:05:46.165Z,72.00
2024-03-13T02:06:18.250Z,73.00
2024-03-13T02:06:51.497Z,73.33
2024-03-13T02:07:25.019Z,73.00
2024-03-13T02:07:56.999Z,73.67
2024-03-13T02:08:33.623Z,81.67
2024-03-13T02:09:07.399Z,83.33
2024-03-13T02:09:39.317Z,81.67
2024-03-13T02:10:11.492Z,80.67
2024-03-13T02:10:43.587Z,80.33
2024-03-13T02:11:15.485Z,80.33
2024-03-13T02:11:47.590Z,81.33
2024-03-13T02:12:19.473Z,91.33
2024-03-13T02:13:04.563Z,96.67
2024-03-13T02:13:40.203Z,91.33
2024-03-13T02:14:12.002Z,102.33
2024-03-13T02:14:44.172Z,96.33
2024-03-13T02:15:16.014Z,94.33
2024-03-13T02:15:47.980Z,92.67
2024-03-13T02:16:19.895Z,90.00
2024-03-13T02:16:53.617Z,75.00
2024-03-13T02:17:25.822Z,59.33
2024-03-13T02:18:03.546Z,62.33
2024-03-13T02:18:36.982Z,65.67
2024-03-13T02:19:09.110Z,64.67
2024-03-13T02:19:41.496Z,59.00
2024-03-13T02:20:16.643Z,54.00
2024-03-13T02:20:50.209Z,56.33
2024-03-13T02:21:22.047Z,58.33
2024-03-13T02:21:59.241Z,57.67
2024-03-13T02:22:31.745Z,59.00
2024-03-13T02:23:07.063Z,59.33
2024-03-13T02:23:40.415Z,64.33
2024-03-13T02:24:13.181Z,70.67
2024-03-13T02:24:45.568Z,70.00
2024-03-13T02:25:17.478Z,73.67
2024-03-13T02:25:52.600Z,89.00
2024-03-13T02:26:26.094Z,88.33
2024-03-13T02:26:58.063Z,84.67
2024-03-13T02:27:29.909Z,82.67
2024-03-13T02:28:02.326Z,72.67
2024-03-13T02:28:35.898Z,69.00
2024-03-13T02:29:08.346Z,68.33
2024-03-13T02:29:44.110Z,66.67
2024-03-13T02:30:15.979Z,60.00
2024-03-13T02:30:48.766Z,59.00
2024-03-13T02:31:21.052Z,58.67
2024-03-13T02:31:53.202Z,58.00
2024-03-13T02:32:25.034Z,56.00
2024-03-13T02:32:56.913Z,57.33
2024-03-13T02:33:29.559Z,58.00
2024-03-13T02:34:01.480Z,58.33
2024-03-13T02:34:33.481Z,57.33
2024-03-13T02:35:05.497Z,55.67
2024-03-13T02:35:37.332Z,53.00
2024-03-13T02:36:09.664Z,52.67
2024-03-13T02:36:41.477Z,51.33
2024-03-13T02:37:13.372Z,44.67
2024-03-13T02:37:45.586Z,44.00
2024-03-13T02:38:17.420Z,46.67
2024-03-13T02:38:50.723Z,46.00
2024-03-13T02:39:22.605Z,46.00
2024-03-13T02:39:54.508Z,47.67
2024-03-13T02:40:26.386Z,48.33
2024-03-13T02:40:58.325Z,48.33
2024-03-13T02:41:30.159Z,49.00
2024-03-13T02:42:02.777Z,48.00
2024-03-13T02:42:34.640Z,48.00
2024-03-13T02:43:06.471Z,48.00
2024-03-13T02:43:41.465Z,47.00
2024-03-13T02:44:13.262Z,47.00
2024-03-13T02:44:45.305Z,47.00
2024-03-13T02:45:17.725Z,47.00
2024-03-13T02:45:49.933Z,51.33
2024-03-13T02:46:21.806Z,54.67
2024-03-13T02:46:55.286Z,54.33
2024-03-13T02:47:27.156Z,54.00
2024-03-13T02:47:59.240Z,52.67
2024-03-13T02:48:31.064Z,50.33
2024-03-13T02:49:02.956Z,46.67
2024-03-13T02:49:37.065Z,43.00
2024-03-13T02:50:13.005Z,40.67
2024-03-13T02:50:46.093Z,39.67
2024-03-13T02:51:17.966Z,39.00
2024-03-13T02:51:49.833Z,38.67
2024-03-13T02:52:21.981Z,37.33
2024-03-13T02:52:53.893Z,37.00
2024-03-13T02:53:25.772Z,37.00
2024-03-13T02:53:58.279Z,37.33
2024-03-13T02:54:30.131Z,37.33
2024-03-13T02:55:02.010Z,37.67
2024-03-13T02:55:34.440Z,38.67
2024-03-13T02:56:09.061Z,39.00
2024-03-13T02:56:40.884Z,39.00
2024-03-13T02:57:12.722Z,39.00
2024-03-13T02:57:46.028Z,37.67
2024-03-13T02:58:17.956Z,37.00
2024-03-13T02:58:50.484Z,37.00
2024-03-13T02:59:22.311Z,37.67
2024-03-13T02:59:54.157Z,38.00
2024-03-13T03:00:26.967Z,38.67
2024-03-13T03:00:59.991Z,39.00
2024-03-13T03:01:32.006Z,39.00
2024-03-13T03:02:07.232Z,38.33
2024-03-13T03:02:41.216Z,38.00
2024-03-13T03:03:14.489Z,39.00
2024-03-13T03:03:46.461Z,39.67
2024-03-13T03:04:19.982Z,47.67
2024-03-13T03:04:52.289Z,49.33
2024-03-13T03:05:25.424Z,50.33
2024-03-13T03:05:57.868Z,52.67
2024-03-13T03:06:29.697Z,52.67
2024-03-13T03:07:02.237Z,52.00
2024-03-13T03:07:35.164Z,51.67
2024-03-13T03:08:08.276Z,51.00
2024-03-13T03:08:43.222Z,51.00
2024-03-13T03:09:15.051Z,51.00
2024-03-13T03:09:46.894Z,51.00
2024-03-13T03:10:19.019Z,51.33
2024-03-13T03:10:51.723Z,63.00
2024-03-13T03:11:26.754Z,66.00
2024-03-13T03:11:58.627Z,61.67
2024-03-13T03:12:30.487Z,60.67
2024-03-13T03:13:02.354Z,59.67
2024-03-13T03:13:34.432Z,58.67
2024-03-13T03:14:06.435Z,57.67
2024-03-13T03:14:38.331Z,57.00
2024-03-13T03:15:13.244Z,57.00
2024-03-13T03:15:45.813Z,56.33
2024-03-13T03:16:19.475Z,56.00
2024-03-13T03:16:51.439Z,57.67
2024-03-13T03:17:23.801Z,70.33
2024-03-13T03:17:55.804Z,71.67
2024-03-13T03:18:27.772Z,68.33
2024-03-13T03:19:01.096Z,66.00
2024-03-13T03:19:35.429Z,64.00
2024-03-13T03:20:07.921Z,61.33
2024-03-13T03:20:41.114Z,60.00
2024-03-13T03:21:14.202Z,59.67
2024-03-13T03:21:46.092Z,59.00
2024-03-13T03:22:20.750Z,59.00
2024-03-13T03:22:52.650Z,59.00
2024-03-13T03:23:24.477Z,59.00
2024-03-13T03:23:58.792Z,58.00
2024-03-13T03:24:33.423Z,58.33
2024-03-13T03:25:06.869Z,59.00
2024-03-13T03:25:39.106Z,58.67
2024-03-13T03:26:17.702Z,57.33
2024-03-13T03:26:49.538Z,55.00
2024-03-13T03:27:21.401Z,50.33
2024-03-13T03:27:53.261Z,49.67
2024-03-13T03:28:25.154Z,50.00
2024-03-13T03:28:59.896Z,50.00
2024-03-13T03:29:31.700Z,50.67
2024-03-13T03:30:05.008Z,51.67
2024-03-13T03:30:42.857Z,52.67
2024-03-13T03:31:14.915Z,53.00
2024-03-13T03:31:46.766Z,53.00
2024-03-13T03:32:18.855Z,53.00
2024-03-13T03:32:50.811Z,54.00
2024-03-13T03:33:22.666Z,54.67
2024-03-13T03:33:54.548Z,55.00
2024-03-13T03:34:26.573Z,55.00
2024-03-13T03:34:58.457Z,54.67
2024-03-13T03:35:30.698Z,55.00
2024-03-13T03:36:03.007Z,57.33
2024-03-13T03:36:34.841Z,57.33
2024-03-13T03:37:07.208Z,54.67
2024-03-13T03:37:39.445Z,50.33
2024-03-13T03:38:11.407Z,50.00
2024-03-13T03:38:43.215Z,49.00
2024-03-13T03:39:16.336Z,50.67
2024-03-13T03:39:49.490Z,52.00
2024-03-13T03:40:24.385Z,51.67
2024-03-13T03:40:56.475Z,51.00
2024-03-13T03:41:28.337Z,50.00
2024-03-13T03:42:00.228Z,50.00
2024-03-13T03:42:32.428Z,50.00
2024-03-13T03:43:05.560Z,50.00
2024-03-13T03:43:38.658Z,50.00
2024-03-13T03:44:12.501Z,49.00
2024-03-13T03:44:44.313Z,49.00
2024-03-13T03:45:18.053Z,49.00
2024-03-13T03:45:51.054Z,49.33
2024-03-13T03:46:22.955Z,50.00
2024-03-13T03:46:54.799Z,52.67
2024-03-13T03:47:26.660Z,57.00
2024-03-13T03:48:04.785Z,56.33
2024-03-13T03:48:42.690Z,56.00
2024-03-13T03:49:14.583Z,55.00
2024-03-13T03:49:46.416Z,54.00
2024-03-13T03:50:18.444Z,54.00
2024-03-13T03:50:50.295Z,54.00
2024-03-13T03:51:22.097Z,53.67
2024-03-13T03:51:54.028Z,53.00
2024-03-13T03:52:25.938Z,53.00
2024-03-13T03:52:57.825Z,53.00
2024-03-13T03:53:29.685Z,52.00
2024-03-13T03:54:02.044Z,51.33
2024-03-13T03:54:35.603Z,49.67
2024-03-13T03:55:07.836Z,48.33
2024-03-13T03:55:39.732Z,49.00
2024-03-13T03:56:13.757Z,49.00
2024-03-13T03:56:46.904Z,49.00
2024-03-13T03:57:20.911Z,49.00
2024-03-13T03:57:52.773Z,48.33
2024-03-13T03:58:24.724Z,48.67
2024-03-13T03:58:56.605Z,50.00
2024-03-13T03:59:28.534Z,52.00
2024-03-13T04:00:01.838Z,52.33
2024-03-13T04:00:36.688Z,58.33
2024-03-13T04:01:09.058Z,58.33
2024-03-13T04:01:43.202Z,57.33
2024-03-13T04:02:17.616Z,55.67
2024-03-13T04:02:49.576Z,55.00
2024-03-13T04:03:21.438Z,55.67
2024-03-13T04:03:53.386Z,56.00
2024-03-13T04:04:27.427Z,56.00
2024-03-13T04:04:59.375Z,56.00
2024-03-13T04:05:31.775Z,55.67
2024-03-13T04:06:04.744Z,55.67
2024-03-13T04:06:36.595Z,57.33
2024-03-13T04:07:09.317Z,72.00
2024-03-13T04:07:41.292Z,69.33
2024-03-13T04:08:15.431Z,67.33
2024-03-13T04:08:49.065Z,66.00
2024-03-13T04:09:21.596Z,65.00
2024-03-13T04:09:53.706Z,64.00
2024-03-13T04:10:25.714Z,63.33
2024-03-13T04:10:57.694Z,63.00
2024-03-13T04:11:30.609Z,63.00
2024-03-13T04:12:02.511Z,61.67
2024-03-13T04:12:35.141Z,60.33
2024-03-13T04:13:07.116Z,58.00
2024-03-13T04:13:42.004Z,56.33
2024-03-13T04:14:13.958Z,56.00
2024-03-13T04:14:45.804Z,56.00
2024-03-13T04:15:22.526Z,56.00
2024-03-13T04:15:54.564Z,56.00
2024-03-13T04:16:26.909Z,56.00
2024-03-13T04:16:58.827Z,59.00
2024-03-13T04:17:30.635Z,66.67
2024-03-13T04:18:04.809Z,68.00
2024-03-13T04:18:37.230Z,66.00
2024-03-13T04:19:11.874Z,67.00
2024-03-13T04:19:43.850Z,92.00
2024-03-13T04:20:20.067Z,94.33
2024-03-13T04:20:52.043Z,81.67
2024-03-13T04:21:23.868Z,77.67
2024-03-13T04:21:55.770Z,76.33
2024-03-13T04:22:28.598Z,74.33
2024-03-13T04:23:01.419Z,73.33
2024-03-13T04:23:33.268Z,75.33
2024-03-13T04:24:06.341Z,75.00
2024-03-13T04:24:38.188Z,74.00
2024-03-13T04:25:10.072Z,72.67
2024-03-13T04:25:42.077Z,70.67
2024-03-13T04:26:16.192Z,69.00
2024-03-13T04:26:48.014Z,65.33
2024-03-13T04:27:21.104Z,61.33
2024-03-13T04:27:56.142Z,57.00
2024-03-13T04:28:28.326Z,57.00
2024-03-13T04:29:00.238Z,59.00
2024-03-13T04:29:38.685Z,61.33
2024-03-13T04:30:15.480Z,62.33
2024-03-13T04:30:50.013Z,63.33
2024-03-13T04:31:21.910Z,64.00
2024-03-13T04:31:53.809Z,64.33
2024-03-13T04:32:26.486Z,66.00
2024-03-13T04:32:59.294Z,66.00
2024-03-13T04:33:31.194Z,65.67
2024-03-13T04:34:03.084Z,64.67
2024-03-13T04:34:35.016Z,64.67
2024-03-13T04:35:07.193Z,65.00
2024-03-13T04:35:39.039Z,63.67
2024-03-13T04:36:10.893Z,61.00
2024-03-13T04:36:42.736Z,60.00
2024-03-13T04:37:16.554Z,58.67
2024-03-13T04:37:48.501Z,58.00
2024-03-13T04:38:20.366Z,58.00
2024-03-13T04:38:52.453Z,57.00
2024-03-13T04:39:24.367Z,55.67
2024-03-13T04:39:58.591Z,54.33
2024-03-13T04:40:30.491Z,54.00
2024-03-13T04:41:02.338Z,54.67
2024-03-13T04:41:34.804Z,55.00
2024-03-13T04:42:06.647Z,55.00
2024-03-13T04:42:38.505Z,55.00
2024-03-13T04:43:10.437Z,56.00
2024-03-13T04:43:42.352Z,56.00
2024-03-13T04:44:14.173Z,55.67
2024-03-13T04:44:46.018Z,56.33
2024-03-13T04:45:17.826Z,56.67
2024-03-13T04:45:49.729Z,57.00
2024-03-13T04:46:21.877Z,57.00
2024-03-13T04:46:53.711Z,58.33
2024-03-13T04:47:26.161Z,59.00
2024-03-13T04:47:58.068Z,59.00
2024-03-13T04:48:29.912Z,59.00
2024-03-13T04:49:01.768Z,60.00
2024-03-13T04:49:33.654Z,60.67
2024-03-13T04:50:05.794Z,60.00
2024-03-13T04:50:37.952Z,60.00
2024-03-13T04:51:10.354Z,62.00
2024-03-13T04:51:42.197Z,77.00
2024-03-13T04:52:14.098Z,82.67
2024-03-13T04:52:46.641Z,77.00
2024-03-13T04:53:24.084Z,75.00
2024-03-13T04:53:55.914Z,76.00
2024-03-13T04:54:27.736Z,76.00
2024-03-13T04:55:00.377Z,78.67
2024-03-13T04:55:32.330Z,86.33
2024-03-13T04:56:07.312Z,88.67
2024-03-13T04:56:39.589Z,83.00
2024-03-13T04:57:11.444Z,81.33
2024-03-13T04:57:43.321Z,80.00
2024-03-13T04:58:15.179Z,78.00
2024-03-13T04:58:47.054Z,76.00
2024-03-13T04:59:18.874Z,75.67
2024-03-13T04:59:51.626Z,74.00
2024-03-13T05:00:23.506Z,71.00
2024-03-13T05:00:55.388Z,67.00
2024-03-13T05:01:27.375Z,63.67
2024-03-13T05:01:59.456Z,63.00
2024-03-13T05:02:31.373Z,63.00
2024-03-13T05:03:04.575Z,63.00
2024-03-13T05:03:36.983Z,63.67
2024-03-13T05:04:08.964Z,64.00
2024-03-13T05:04:40.777Z,69.67
2024-03-13T05:05:18.277Z,102.33
2024-03-13T05:05:50.103Z,112.33
2024-03-13T05:06:22.249Z,105.00
2024-03-13T05:06:57.932Z,102.67
2024-03-13T05:07:29.790Z,93.33
2024-03-13T05:08:03.249Z,92.00
2024-03-13T05:08:35.307Z,93.00
2024-03-13T05:09:08.173Z,92.00
2024-03-13T05:09:42.816Z,90.67
2024-03-13T05:10:18.677Z,91.00
2024-03-13T05:10:51.220Z,91.00
2024-03-13T05:11:23.119Z,90.00
2024-03-13T05:11:54.985Z,89.33
2024-03-13T05:12:27.666Z,99.00
2024-03-13T05:12:59.689Z,102.00
2024-03-13T05:13:32.804Z,97.33
2024-03-13T05:14:04.700Z,95.67
2024-03-13T05:14:36.539Z,94.00
2024-03-13T05:15:09.780Z,95.00
2024-03-13T05:15:41.652Z,105.67
2024-03-13T05:16:14.395Z,108.67
2024-03-13T05:16:46.582Z,103.00
2024-03-13T05:17:18.421Z,101.33
2024-03-13T05:17:50.967Z,100.33
2024-03-13T05:18:23.003Z,95.67
2024-03-13T05:18:54.877Z,89.00
2024-03-13T05:19:26.740Z,87.00
2024-03-13T05:19:59.671Z,82.67
2024-03-13T05:20:31.542Z,76.33
2024-03-13T05:21:03.343Z,74.67
2024-03-13T05:21:35.193Z,70.00
2024-03-13T05:22:07.130Z,68.67
2024-03-13T05:22:39.025Z,70.00
2024-03-13T05:23:10.904Z,69.00
2024-03-13T05:23:42.734Z,66.00
2024-03-13T05:24:17.415Z,64.67
2024-03-13T05:24:50.849Z,66.00
2024-03-13T05:25:25.588Z,67.33
2024-03-13T05:25:57.485Z,68.67
2024-03-13T05:26:29.841Z,69.33
2024-03-13T05:27:01.658Z,70.00
2024-03-13T05:27:33.933Z,70.00
2024-03-13T05:28:05.945Z,69.67
2024-03-13T05:28:38.268Z,69.33
2024-03-13T05:29:10.809Z,69.00
2024-03-13T05:29:42.756Z,69.00
2024-03-13T05:30:14.686Z,74.00
2024-03-13T05:30:46.542Z,85.00
2024-03-13T05:31:18.386Z,85.67
2024-03-13T05:31:51.128Z,84.33
2024-03-13T05:32:23.036Z,79.33
2024-03-13T05:32:54.955Z,73.67
2024-03-13T05:33:26.836Z,73.00
2024-03-13T05:33:58.689Z,75.33
2024-03-13T05:34:30.609Z,84.00
2024-03-13T05:35:02.446Z,87.00
2024-03-13T05:35:34.463Z,85.67
2024-03-13T05:36:08.246Z,85.00
2024-03-13T05:36:40.111Z,85.33
2024-03-13T05:37:13.317Z,87.33
2024-03-13T05:37:45.266Z,95.67
2024-03-13T05:38:18.090Z,108.67
2024-03-13T05:38:50.125Z,111.67
2024-03-13T05:39:22.152Z,123.00
2024-03-13T05:39:54.130Z,130.67
2024-03-13T05:40:26.063Z,139.67
2024-03-13T05:40:59.180Z,133.00
2024-03-13T05:41:31.016Z,123.00
2024-03-13T05:42:02.884Z,120.00
2024-03-13T05:42:34.929Z,115.00
2024-03-13T05:43:06.831Z,111.67
2024-03-13T05:43:39.135Z,108.00
2024-03-13T05:44:11.394Z,98.00
2024-03-13T05:44:43.309Z,83.00
2024-03-13T05:45:15.399Z,69.33
2024-03-13T05:45:47.721Z,63.33
2024-03-13T05:46:19.665Z,67.67
2024-03-13T05:46:52.759Z,76.00
2024-03-13T05:47:24.588Z,78.00
2024-03-13T05:47:56.482Z,79.33
2024-03-13T05:48:28.569Z,80.00
2024-03-13T05:49:00.419Z,80.00
2024-03-13T05:49:32.282Z,79.00
2024-03-13T05:50:04.571Z,77.00
2024-03-13T05:50:36.821Z,78.00
2024-03-13T05:51:09.984Z,81.33
2024-03-13T05:51:42.255Z,82.00
2024-03-13T05:52:14.101Z,82.00
2024-03-13T05:52:49.137Z,82.67
2024-03-13T05:53:21.455Z,84.67
2024-03-13T05:53:53.273Z,86.00
2024-03-13T05:54:25.362Z,86.00
2024-03-13T05:54:57.420Z,87.00
2024-03-13T05:55:29.276Z,87.67
2024-03-13T05:56:01.695Z,89.33
2024-03-13T05:56:33.549Z,97.00
2024-03-13T05:57:05.378Z,106.33
2024-03-13T05:57:39.734Z,117.33
2024-03-13T05:58:12.099Z,127.33
2024-03-13T05:58:43.972Z,122.67
2024-03-13T05:59:15.780Z,119.67
2024-03-13T05:59:47.760Z,116.67
2024-03-13T06:00:20.856Z,113.00
2024-03-13T06:00:53.847Z,111.00
2024-03-13T06:01:28.433Z,109.00
2024-03-13T06:02:01.226Z,110.00
2024-03-13T06:02:33.626Z,111.33
2024-03-13T06:03:05.598Z,111.33
2024-03-13T06:03:37.714Z,110.33
2024-03-13T06:04:09.591Z,108.33
2024-03-13T06:04:41.523Z,105.67
2024-03-13T06:05:15.806Z,105.00
2024-03-13T06:05:47.677Z,105.00
2024-03-13T06:06:19.525Z,105.67
2024-03-13T06:06:52.622Z,103.33
2024-03-13T06:07:24.540Z,91.67
2024-03-13T06:07:59.763Z,87.00
2024-03-13T06:08:33.117Z,86.00
2024-03-13T06:09:04.961Z,85.67
2024-03-13T06:09:39.694Z,85.00
2024-03-13T06:10:12.023Z,86.33
2024-03-13T06:10:44.206Z,86.00
2024-03-13T06:11:19.948Z,84.67
2024-03-13T06:11:51.873Z,82.67
2024-03-13T06:12:23.770Z,84.67
2024-03-13T06:12:55.656Z,86.00
2024-03-13T06:13:27.617Z,93.67
2024-03-13T06:14:00.419Z,98.00
2024-03-13T06:14:32.308Z,97.33
2024-03-13T06:15:08.041Z,97.00
2024-03-13T06:15:39.856Z,102.33
2024-03-13T06:16:11.768Z,117.00
2024-03-13T06:16:43.724Z,120.67
2024-03-13T06:17:15.564Z,122.00
2024-03-13T06:17:47.726Z,119.00
2024-03-13T06:18:19.762Z,114.33
2024-03-13T06:18:51.899Z,113.00
2024-03-13T06:19:24.302Z,116.67
2024-03-13T06:19:56.199Z,121.00
2024-03-13T06:20:28.037Z,118.00
2024-03-13T06:20:59.882Z,117.33
2024-03-13T06:21:31.917Z,119.33
2024-03-13T06:22:03.794Z,121.00
2024-03-13T06:22:37.033Z,128.00
2024-03-13T06:23:09.002Z,125.33
2024-03-13T06:23:49.434Z,122.00
2024-03-13T06:24:31.519Z,114.67
2024-03-13T06:25:07.589Z,105.00
2024-03-13T06:25:40.408Z,106.00
2024-03-13T06:26:18.070Z,104.00
2024-03-13T06:26:51.787Z,97.67
2024-03-13T06:27:28.634Z,97.33
2024-03-13T06:28:23.115Z,97.33
2024-03-13T06:29:14.209Z,95.67
2024-03-13T06:29:59.358Z,99.67
2024-03-13T06:30:32.337Z,147.33
2024-03-13T06:31:04.461Z,155.33
2024-03-13T06:31:42.125Z,132.33
2024-03-13T06:32:15.742Z,125.67
2024-03-13T06:32:47.598Z,122.33
2024-03-13T06:33:19.509Z,124.00
2024-03-13T06:33:53.406Z,126.67
2024-03-13T06:34:25.317Z,127.00
2024-03-13T06:34:57.749Z,125.67
2024-03-13T06:35:32.119Z,126.00
2024-03-13T06:36:04.030Z,125.00
2024-03-13T06:36:37.843Z,128.67
2024-03-13T06:37:09.762Z,143.00
2024-03-13T06:37:41.699Z,135.33
2024-03-13T06:38:13.602Z,132.33
2024-03-13T06:38:47.383Z,130.67
2024-03-13T06:39:54.796Z,124.33
2024-03-13T06:40:26.912Z,132.33
2024-03-13T06:40:58.794Z,134.33
2024-03-13T06:41:30.792Z,131.00
2024-03-13T06:42:02.607Z,128.33
2024-03-13T06:42:34.438Z,127.67
2024-03-13T06:43:06.372Z,127.00
2024-03-13T06:43:38.317Z,133.33
2024-03-13T06:44:10.136Z,145.67
2024-03-13T06:44:42.013Z,154.33
2024-03-13T06:45:21.285Z,175.33
2024-03-13T06:45:59.751Z,175.33
2024-03-13T06:46:31.691Z,174.00
2024-03-13T06:47:03.602Z,175.00
2024-03-13T06:47:35.519Z,176.00
2024-03-13T06:48:07.566Z,171.00
2024-03-13T06:48:39.540Z,166.33
2024-03-13T06:49:11.452Z,160.00
2024-03-13T06:49:44.754Z,158.67
2024-03-13T06:50:50.366Z,175.67
2024-03-13T06:51:22.529Z,169.33
2024-03-13T06:51:54.423Z,183.33
2024-03-13T06:52:26.312Z,173.67
2024-03-13T06:52:58.260Z,168.00
2024-03-13T06:53:30.099Z,166.67
2024-03-13T06:54:01.973Z,163.33
2024-03-13T06:54:33.798Z,136.00
2024-03-13T06:55:05.690Z,118.00
2024-03-13T06:55:37.600Z,125.33
2024-03-13T06:56:09.438Z,133.67
2024-03-13T06:56:41.367Z,135.00
2024-03-13T06:57:15.906Z,136.33
2024-03-13T06:57:47.770Z,138.33
2024-03-13T06:58:19.589Z,134.67
2024-03-13T06:58:51.571Z,136.00
2024-03-13T06:59:24.571Z,137.00
2024-03-13T06:59:59.996Z,137.00
2024-03-13T07:00:34.323Z,136.33
2024-03-13T07:01:15.440Z,135.00
2024-03-13T07:01:47.786Z,136.33
2024-03-13T07:02:19.705Z,139.67
2024-03-13T07:02:51.645Z,140.00
2024-03-13T07:03:25.035Z,139.00
2024-03-13T07:03:57.323Z,138.67
2024-03-13T07:04:30.460Z,134.67
2024-03-13T07:05:02.332Z,131.67
2024-03-13T07:05:34.195Z,131.33
2024-03-13T07:06:07.539Z,132.00
2024-03-13T07:06:42.694Z,130.67
2024-03-13T07:07:14.614Z,132.00
2024-03-13T07:07:46.508Z,136.67
2024-03-13T07:08:19.452Z,142.00
2024-03-13T07:08:51.265Z,141.33
2024-03-13T07:09:23.078Z,140.00